Time;durP1;ratioP1;P1;durP2;ratioP2;P2;SDS_P1;SDS_P2;PMS_P1;PMS_P2;Temp;Humidity;BMP_temperature;BMP_pressure;BME280_temperature;BME280_humidity;BME280_pressure;Samples;Min_cycle;Max_cycle;Signal;HPM_P1;HPM_P2
2022/07/13 00:00:59;;;;;;;27.83;19.50;;;;;;;20.35;82.48;102105.19;6126299;23;20001;-80
2022/07/13 00:03:24;;;;;;;28.75;20.17;;;;;;;20.45;83.28;102113.16;6125992;23;20010;-75
2022/07/13 00:05:49;;;;;;;29.55;20.10;;;;;;;20.45;83.55;102121.03;6126222;23;20002;-79
2022/07/13 00:08:15;;;;;;;27.15;19.83;;;;;;;20.43;83.61;102121.16;6099819;23;20019;-77
2022/07/13 00:10:40;;;;;;;31.85;19.98;;;;;;;20.40;83.87;102104.84;6126340;23;20002;-76
2022/07/13 00:13:05;;;;;;;34.30;20.42;;;;;;;20.36;84.01;102090.31;6126079;23;20006;-75
2022/07/13 00:15:30;;;;;;;27.88;19.83;;;;;;;20.17;83.54;102057.75;6126383;23;20009;-76
2022/07/13 00:17:56;;;;;;;30.08;20.67;;;;;;;20.18;84.06;102075.16;6100365;23;20006;-77
2022/07/13 00:20:21;;;;;;;32.80;21.25;;;;;;;20.20;83.93;102085.53;6125937;23;20002;-76
2022/07/13 00:22:46;;;;;;;37.58;21.58;;;;;;;20.24;83.27;102081.66;6126205;23;20006;-78
2022/07/13 00:25:12;;;;;;;30.17;21.30;;;;;;;20.19;83.53;102076.00;6126222;23;20384;-74
2022/07/13 00:27:37;;;;;;;29.30;21.10;;;;;;;20.15;83.89;102085.06;6125788;23;20069;-78
2022/07/13 00:30:03;;;;;;;31.20;21.38;;;;;;;20.01;83.33;102057.38;6126321;23;20002;-75
2022/07/13 00:32:28;;;;;;;34.97;22.83;;;;;;;20.01;83.98;102071.31;6126146;23;20002;-80
2022/07/13 00:34:53;;;;;;;33.50;21.73;;;;;;;19.98;84.56;102068.13;6126071;23;20454;-76
2022/07/13 00:37:19;;;;;;;38.78;23.10;;;;;;;19.92;83.84;102055.53;6125617;23;20021;-77
2022/07/13 00:39:44;;;;;;;33.35;22.55;;;;;;;19.92;82.92;102069.47;6126437;23;20029;-75
2022/07/13 00:42:09;;;;;;;29.70;21.27;;;;;;;19.90;83.40;102063.50;6125819;23;20012;-73
2022/07/13 00:44:35;;;;;;;33.83;22.17;;;;;;;19.81;84.11;102038.06;6125985;23;20010;-77
2022/07/13 00:47:01;;;;;;;33.63;22.17;;;;;;;19.83;83.52;102054.50;6125971;23;20009;-79
2022/07/13 00:49:26;;;;;;;32.97;21.90;;;;;;;19.84;83.28;102053.53;6125788;23;20429;-80
2022/07/13 00:51:52;;;;;;;34.63;21.90;;;;;;;19.83;83.17;102051.88;6126145;23;20068;-79
2022/07/13 00:54:20;;;;;;;31.60;22.85;;;;;;;19.70;84.15;102025.84;6125877;23;20006;-80
2022/07/13 00:56:45;;;;;;;40.47;22.17;;;;;;;19.84;83.33;102035.19;6125798;23;20017;-80
2022/07/13 00:59:11;;;;;;;32.58;22.23;;;;;;;19.86;82.54;102030.66;6099412;23;20344;-80
2022/07/13 01:01:36;;;;;;;29.75;20.90;;;;;;;19.86;82.78;102037.66;6125872;23;20009;-81
2022/07/13 01:04:02;;;;;;;31.98;23.05;;;;;;;19.83;83.38;102038.75;6099322;23;20077;-79
2022/07/13 01:06:27;;;;;;;36.65;22.17;;;;;;;19.65;82.07;102004.41;6125507;23;20085;-79
2022/07/13 01:08:53;;;;;;;33.13;22.27;;;;;;;19.80;83.16;102025.91;6125762;23;20010;-80
2022/07/13 01:11:18;;;;;;;33.17;21.13;;;;;;;19.82;83.10;102026.63;6125784;23;20036;-77
2022/07/13 01:13:45;;;;;;;30.30;21.50;;;;;;;19.81;83.43;102024.13;6126014;23;20002;-80
2022/07/13 01:16:10;;;;;;;28.95;21.35;;;;;;;19.81;82.54;102027.56;6125560;23;20081;-81
2022/07/13 01:18:37;;;;;;;30.83;21.92;;;;;;;19.81;83.25;102024.13;6125838;23;20108;-74
2022/07/13 01:21:05;;;;;;;30.83;21.83;;;;;;;19.80;82.87;102023.28;6125485;23;20077;-75
2022/07/13 01:23:32;;;;;;;32.20;21.98;;;;;;;19.75;82.64;102021.03;6125338;23;20440;-76
2022/07/13 01:25:57;;;;;;;32.78;21.08;;;;;;;19.85;82.69;102025.53;6099857;23;20002;-76
2022/07/13 01:28:23;;;;;;;40.70;20.75;;;;;;;19.84;83.36;102026.47;6125987;23;20005;-75
2022/07/13 01:30:49;;;;;;;31.08;21.17;;;;;;;19.85;83.21;102022.91;6125586;23;20006;-79
2022/07/13 01:33:15;;;;;;;31.95;19.80;;;;;;;19.86;82.81;102025.41;6126050;23;20006;-77
2022/07/13 01:35:40;;;;;;;31.80;21.70;;;;;;;19.71;81.56;102006.53;6125615;23;20384;-79
2022/07/13 01:38:05;;;;;;;30.35;19.88;;;;;;;19.68;82.22;102006.81;6098414;23;20022;-76
2022/07/13 01:40:31;;;;;;;32.53;21.40;;;;;;;19.84;82.59;102026.47;6125534;23;20006;-75
2022/07/13 01:42:56;;;;;;;31.25;21.25;;;;;;;19.85;83.13;102015.03;6125545;23;20049;-75
2022/07/13 01:45:23;;;;;;;29.67;20.02;;;;;;;19.86;82.39;102011.44;6125669;23;20002;-76
2022/07/13 01:47:51;;;;;;;29.90;20.58;;;;;;;19.81;82.81;102003.16;6125934;23;20002;-74
2022/07/13 01:50:19;;;;;;;27.95;18.98;;;;;;;19.63;82.87;101979.31;6125732;23;20092;-78
2022/07/13 01:52:44;;;;;;;29.90;20.15;;;;;;;19.75;83.39;102009.72;6125441;23;20417;-80
2022/07/13 01:55:12;;;;;;;29.30;20.60;;;;;;;19.74;83.34;102010.69;6125767;23;20036;-80
2022/07/13 01:57:38;;;;;;;35.40;20.95;;;;;;;19.72;83.41;102016.06;6125346;23;20006;-80
2022/07/13 02:00:30;;;;;;;29.40;19.55;;;;;;;19.77;83.46;102018.31;6125838;23;20084;-79
2022/07/13 02:02:55;;;;;;;30.23;19.85;;;;;;;19.73;83.74;102012.47;6054057;23;20345;-77
2022/07/13 02:05:21;;;;;;;29.90;20.38;;;;;;;19.72;84.42;102008.19;6064578;23;20030;-77
2022/07/13 02:07:46;;;;;;;32.45;21.02;;;;;;;19.63;84.25;101990.63;6064889;23;20401;-80
2022/07/13 02:10:12;;;;;;;28.50;19.98;;;;;;;19.67;83.66;101999.91;6064770;23;20045;-79
2022/07/13 02:12:38;;;;;;;31.65;19.77;;;;;;;19.70;84.08;102002.25;6064937;23;20067;-77
2022/07/13 02:15:04;;;;;;;30.02;20.35;;;;;;;19.69;84.36;101995.34;6065044;23;20437;-77
2022/07/13 02:17:29;;;;;;;30.65;19.95;;;;;;;19.70;83.71;101988.31;6064873;23;20019;-80
2022/07/13 02:19:54;;;;;;;30.13;20.63;;;;;;;19.66;83.35;101984.28;6064728;23;20441;-75
2022/07/13 02:22:20;;;;;;;29.05;20.58;;;;;;;19.61;84.23;101981.22;6064678;23;20047;-81
2022/07/13 02:24:45;;;;;;;29.42;20.73;;;;;;;19.67;84.21;101996.44;6065310;23;20519;-79
2022/07/13 02:27:10;;;;;;;27.70;19.27;;;;;;;19.60;83.98;101990.88;6065543;23;20011;-78
2022/07/13 02:29:38;;;;;;;31.38;21.35;;;;;;;19.65;84.42;101990.47;6066731;23;20013;-79
2022/07/13 02:32:05;;;;;;;29.50;20.60;;;;;;;19.65;84.70;101977.38;6066535;23;20085;-78
2022/07/13 02:34:31;;;;;;;31.60;19.70;;;;;;;19.56;83.84;101954.56;6066502;23;20034;-79
2022/07/13 02:36:58;;;;;;;28.52;20.23;;;;;;;19.55;84.31;101955.47;6065954;23;20022;-79
2022/07/13 02:39:24;;;;;;;33.90;20.50;;;;;;;19.59;83.85;101965.63;6089447;23;20013;-78
2022/07/13 02:41:49;;;;;;;29.52;18.98;;;;;;;19.51;83.78;101954.09;6127293;23;19998;-74
2022/07/13 02:44:15;;;;;;;30.83;20.20;;;;;;;19.57;83.60;101957.06;6127090;23;20009;-79
2022/07/13 02:46:41;;;;;;;32.63;20.70;;;;;;;19.57;82.87;101945.75;6127029;23;19998;-79
2022/07/13 02:49:06;;;;;;;27.17;17.95;;;;;;;19.62;79.50;101948.81;6126985;23;20073;-80
2022/07/13 02:51:31;;;;;;;24.98;17.33;;;;;;;19.63;80.78;101951.31;6126823;23;20002;-78
2022/07/13 02:53:57;;;;;;;25.33;16.73;;;;;;;19.63;80.84;101956.53;6126825;23;20077;-79
2022/07/13 02:56:22;;;;;;;24.40;16.52;;;;;;;19.64;81.96;101957.38;6100334;23;20006;-80
2022/07/13 02:58:47;;;;;;;23.65;15.57;;;;;;;19.63;80.90;101959.16;6127156;23;20013;-75
2022/07/13 03:01:12;;;;;;;23.25;13.85;;;;;;;19.63;79.40;101961.78;6126918;23;20006;-80
2022/07/13 03:03:38;;;;;;;21.38;14.25;;;;;;;19.62;79.74;101954.06;6126769;23;20001;-76
2022/07/13 03:06:04;;;;;;;19.48;13.15;;;;;;;19.70;77.53;101956.88;6126945;23;20084;-80
2022/07/13 03:08:29;;;;;;;21.50;12.93;;;;;;;19.70;77.88;101959.50;6126497;23;20002;-79
2022/07/13 03:10:54;;;;;;;17.92;12.10;;;;;;;19.73;78.80;101959.22;6127088;23;20046;-77
2022/07/13 03:13:20;;;;;;;17.27;11.75;;;;;;;19.67;77.96;101957.13;6127031;23;20081;-77
2022/07/13 03:15:45;;;;;;;17.60;10.98;;;;;;;19.70;78.22;101957.72;6126719;23;20006;-75
2022/07/13 03:18:10;;;;;;;16.85;10.65;;;;;;;19.68;76.36;101954.38;6126878;23;20056;-77
2022/07/13 03:20:36;;;;;;;15.27;10.20;;;;;;;19.68;74.49;101962.25;6126736;23;20420;-79
2022/07/13 03:23:01;;;;;;;18.42;10.13;;;;;;;19.58;72.57;101935.16;6126387;23;20006;-77
2022/07/13 03:25:26;;;;;;;15.48;10.18;;;;;;;19.74;73.07;101943.38;6126638;23;20038;-80
2022/07/13 03:27:52;;;;;;;14.77;9.27;;;;;;;19.69;73.70;101927.22;6126817;23;20386;-77
2022/07/13 03:30:17;;;;;;;12.80;8.88;;;;;;;19.86;72.83;101948.53;6126889;23;20002;-76
2022/07/13 03:32:43;;;;;;;12.65;8.30;;;;;;;19.87;72.06;101944.97;6126322;23;20029;-80
2022/07/13 03:35:08;;;;;;;13.45;7.95;;;;;;;19.67;71.45;101908.19;6100501;23;20081;-80
2022/07/13 03:37:33;;;;;;;11.45;7.85;;;;;;;19.84;71.09;101932.09;6125910;23;20073;-81
2022/07/13 03:39:59;;;;;;;11.73;7.38;;;;;;;19.90;74.01;101942.91;6126155;23;20002;-81
2022/07/13 03:42:24;;;;;;;12.00;7.47;;;;;;;19.95;68.99;101942.50;6126746;23;20053;-80
2022/07/13 03:44:49;;;;;;;12.27;7.97;;;;;;;19.93;68.77;101928.72;6126653;23;20005;-79
2022/07/13 03:47:15;;;;;;;14.60;7.10;;;;;;;20.01;69.88;101942.84;6126689;23;20010;-80
2022/07/13 03:49:40;;;;;;;11.90;7.25;;;;;;;20.04;69.17;101941.72;6126393;23;20448;-80
2022/07/13 03:52:05;;;;;;;14.38;7.78;;;;;;;20.03;69.32;101935.66;6126466;23;20038;-81
2022/07/13 03:54:31;;;;;;;15.07;7.60;;;;;;;20.01;71.34;101934.13;6126126;23;20033;-76
2022/07/13 03:56:57;;;;;;;12.90;7.68;;;;;;;20.00;71.37;101935.09;6126233;23;20010;-75
2022/07/13 03:59:22;;;;;;;15.07;6.85;;;;;;;19.99;68.92;101928.19;6126126;23;20085;-80
2022/07/13 04:01:48;;;;;;;12.68;7.15;;;;;;;20.09;67.59;101936.94;6126761;23;20002;-80
2022/07/13 04:04:13;;;;;;;12.02;6.82;;;;;;;20.13;66.96;101943.56;6126139;23;20006;-79
2022/07/13 04:06:38;;;;;;;12.27;7.18;;;;;;;20.15;67.42;101938.19;6126138;23;20006;-76
2022/07/13 04:09:04;;;;;;;11.93;7.05;;;;;;;20.18;66.75;101941.41;6126442;23;20059;-80
2022/07/13 04:11:29;;;;;;;15.82;6.82;;;;;;;20.21;65.58;101929.81;6126107;23;20009;-80
2022/07/13 04:13:55;;;;;;;11.50;6.85;;;;;;;20.26;65.96;101931.09;6126231;23;20071;-81
2022/07/13 04:16:20;;;;;;;10.88;6.70;;;;;;;20.30;64.99;101931.63;6126366;23;20012;-78
2022/07/13 04:18:46;;;;;;;10.63;6.25;;;;;;;20.33;65.25;101926.13;6125909;23;20092;-81
2022/07/13 04:21:13;;;;;;;10.63;6.78;;;;;;;20.36;65.08;101925.03;6125922;23;20471;-79
2022/07/13 04:23:39;;;;;;;11.60;6.47;;;;;;;20.32;66.18;101927.91;6125912;23;20329;-79
2022/07/13 04:26:05;;;;;;;17.35;7.72;;;;;;;20.33;65.78;101926.13;6125762;23;20009;-81
2022/07/13 04:28:30;;;;;;;15.48;7.13;;;;;;;20.36;65.49;101919.78;6126310;23;20048;-81
2022/07/13 04:30:56;;;;;;;11.82;6.63;;;;;;;20.39;66.10;101917.72;6125783;23;20002;-78
2022/07/13 04:33:21;;;;;;;13.63;7.60;;;;;;;20.41;65.58;101918.41;6126074;23;20006;-72
2022/07/13 04:35:46;;;;;;;15.38;6.70;;;;;;;20.49;64.07;101917.78;6126415;23;20006;-81
2022/07/13 04:38:12;;;;;;;11.10;7.05;;;;;;;20.53;65.02;101917.34;6125429;23;20096;-75
2022/07/13 04:40:38;;;;;;;14.52;6.88;;;;;;;20.52;64.39;101904.38;6125852;23;20010;-79
2022/07/13 04:43:04;;;;;;;13.52;6.93;;;;;;;20.61;63.20;101907.03;6125941;23;20002;-79
2022/07/13 04:45:29;;;;;;;14.40;6.85;;;;;;;20.75;62.65;101913.69;6125692;23;20325;-79
2022/07/13 04:47:54;;;;;;;14.98;6.82;;;;;;;20.83;62.92;101919.06;6126151;23;20014;-78
2022/07/13 04:50:20;;;;;;;15.98;6.97;;;;;;;20.87;62.79;101909.97;6125949;23;20416;-78
2022/07/13 04:52:45;;;;;;;12.45;7.20;;;;;;;20.98;62.16;101918.69;6125829;23;20035;-74
2022/07/13 04:55:10;;;;;;;13.50;7.55;;;;;;;20.98;61.85;101905.53;6125759;23;20009;-73
2022/07/13 04:57:36;;;;;;;14.82;7.97;;;;;;;21.03;61.76;101908.56;6125765;23;20383;-73
2022/07/13 05:00:04;;;;;;;12.52;7.10;;;;;;;21.09;62.36;101918.53;6125956;23;20016;-78
2022/07/13 05:02:29;;;;;;;14.35;6.80;;;;;;;21.08;61.76;101904.56;6125559;23;20002;-73
2022/07/13 05:04:55;;;;;;;12.02;6.10;;;;;;;21.10;62.92;101897.38;6126055;23;20013;-76
2022/07/13 05:07:20;;;;;;;12.98;7.00;;;;;;;21.27;61.96;101906.41;6126250;23;20040;-81
2022/07/13 05:09:46;;;;;;;13.50;6.68;;;;;;;21.30;61.84;101897.41;6125409;23;20439;-80
2022/07/13 05:12:11;;;;;;;12.95;7.13;;;;;;;21.35;61.34;101903.06;6126010;23;20777;-74
2022/07/13 05:14:37;;;;;;;11.32;7.10;;;;;;;21.40;61.38;101901.66;6125518;23;20085;-78
2022/07/13 05:17:02;;;;;;;8.98;5.47;;;;;;;21.47;61.91;101899.31;6125800;23;20081;-77
2022/07/13 05:19:27;;;;;;;11.32;6.03;;;;;;;21.54;62.84;101899.59;6125862;23;20024;-77
2022/07/13 05:21:53;;;;;;;10.75;5.75;;;;;;;21.60;62.84;101899.81;6125436;23;20425;-76
2022/07/13 05:24:18;;;;;;;10.20;6.18;;;;;;;21.52;61.40;101873.41;6125537;23;20021;-83
2022/07/13 05:26:44;;;;;;;11.25;5.82;;;;;;;21.75;61.97;101898.41;6125507;23;20040;-76
2022/07/13 05:29:09;;;;;;;11.48;6.75;;;;;;;21.79;61.73;101898.94;6125500;23;20002;-79
2022/07/13 05:31:35;;;;;;;11.52;5.85;;;;;;;21.84;61.35;101903.78;6125779;23;20010;-77
2022/07/13 05:34:00;;;;;;;10.70;6.05;;;;;;;21.92;61.36;101904.69;6125683;23;20006;-85
2022/07/13 05:36:26;;;;;;;12.15;6.13;;;;;;;21.97;59.31;101912.16;6125312;23;20018;-82
2022/07/13 05:38:51;;;;;;;10.27;6.10;;;;;;;21.98;60.72;101916.44;6125404;23;20013;-82
2022/07/13 05:41:16;;;;;;;11.35;6.38;;;;;;;21.92;61.25;101912.59;6125647;23;20002;-83
2022/07/13 05:43:42;;;;;;;11.15;5.65;;;;;;;22.02;60.86;101926.56;6125522;23;20084;-82
2022/07/13 05:46:08;;;;;;;12.40;6.05;;;;;;;21.99;60.04;101926.00;6098498;23;20010;-79
2022/07/13 05:48:36;;;;;;;9.27;5.95;;;;;;;21.94;61.78;101917.72;6125572;23;20065;-81
2022/07/13 05:51:02;;;;;;;11.27;5.10;;;;;;;21.91;62.58;101923.25;6124749;23;20026;-84
2022/07/13 05:53:27;;;;;;;10.18;5.78;;;;;;;21.88;60.98;101927.00;6126552;23;20002;-77
2022/07/13 05:55:53;;;;;;;13.52;5.85;;;;;;;21.97;59.90;101938.47;6125222;23;20454;-79
2022/07/13 05:58:18;;;;;;;8.77;5.50;;;;;;;22.13;61.59;101944.00;6125061;23;20014;-79
2022/07/13 06:00:44;;;;;;;10.93;6.28;;;;;;;22.30;61.24;101947.63;6125456;23;20009;-77
2022/07/13 06:03:09;;;;;;;14.15;6.55;;;;;;;22.53;58.53;101938.38;6126778;23;19998;-76
2022/07/13 06:05:34;;;;;;;10.32;5.65;;;;;;;22.76;59.72;101912.44;6127285;23;20016;-76
2022/07/13 06:08:00;;;;;;;15.05;6.47;;;;;;;23.12;56.53;101934.38;6127470;23;20006;-77
2022/07/13 06:10:25;;;;;;;10.52;6.35;;;;;;;23.47;56.48;101928.22;6127080;23;20433;-77
2022/07/13 06:12:50;;;;;;;15.27;7.00;;;;;;;23.67;55.10;101941.22;6127522;23;20006;-75
2022/07/13 06:15:16;;;;;;;10.75;6.80;;;;;;;23.67;55.40;101935.97;6127242;23;20025;-75
2022/07/13 06:17:41;;;;;;;13.68;7.25;;;;;;;23.75;54.74;101931.56;6127122;23;20005;-75
2022/07/13 06:20:07;;;;;;;12.48;7.00;;;;;;;24.00;54.87;101927.25;6127279;23;20060;-76
2022/07/13 06:22:33;;;;;;;12.38;7.05;;;;;;;24.30;54.12;101933.00;6127517;23;19998;-75
2022/07/13 06:24:58;;;;;;;15.10;6.75;;;;;;;24.54;53.00;101934.91;6126971;23;20006;-75
2022/07/13 06:27:23;;;;;;;11.00;6.70;;;;;;;24.73;53.09;101921.41;6100965;23;20009;-75
2022/07/13 06:29:49;;;;;;;13.73;6.75;;;;;;;25.11;50.86;101916.53;6126988;23;20024;-77
2022/07/13 06:32:14;;;;;;;13.68;6.88;;;;;;;25.54;51.88;101930.34;6126972;23;20016;-76
2022/07/13 06:34:39;;;;;;;11.70;6.80;;;;;;;26.10;49.41;101920.63;6127053;23;20008;-81
2022/07/13 06:37:06;;;;;;;11.40;6.88;;;;;;;26.25;48.72;101919.75;6126602;23;20022;-77
2022/07/13 06:39:32;;;;;;;16.95;7.43;;;;;;;26.11;49.34;101917.00;6126921;23;20006;-79
2022/07/13 06:41:57;;;;;;;15.30;7.72;;;;;;;26.31;49.22;101919.03;6127004;23;20006;-77
2022/07/13 06:44:22;;;;;;;11.60;6.75;;;;;;;26.37;48.65;101919.34;6127480;23;20006;-72
2022/07/13 06:46:48;;;;;;;14.32;7.13;;;;;;;26.36;48.98;101918.53;6127092;23;20017;-83
2022/07/13 06:49:13;;;;;;;19.33;7.55;;;;;;;26.82;48.47;101924.72;6126916;23;20381;-80
2022/07/13 06:51:38;;;;;;;15.07;7.68;;;;;;;27.22;47.17;101917.47;6127044;23;20033;-82
2022/07/13 06:54:04;;;;;;;13.95;7.15;;;;;;;27.05;47.46;101922.09;6127266;23;20309;-84
2022/07/13 06:56:29;;;;;;;14.02;7.20;;;;;;;26.74;48.09;101911.50;6127085;23;20006;-86
2022/07/13 06:58:54;;;;;;;14.23;7.97;;;;;;;26.30;48.51;101921.88;6126823;23;20013;-81
2022/07/13 07:01:20;;;;;;;12.85;7.20;;;;;;;26.06;49.46;101922.00;6126634;23;20084;-75
2022/07/13 07:03:46;;;;;;;18.25;7.57;;;;;;;26.33;49.31;101907.44;6126783;23;20006;-79
2022/07/13 07:06:12;;;;;;;11.95;6.75;;;;;;;27.81;46.77;101898.16;6126942;23;20010;-79
2022/07/13 07:08:37;;;;;;;16.27;7.00;;;;;;;29.65;42.55;101909.81;6126697;23;20092;-76
2022/07/13 07:11:03;;;;;;;15.82;8.20;;;;;;;29.91;40.63;101916.31;6126663;23;20061;-76
2022/07/13 07:13:28;;;;;;;15.52;7.25;;;;;;;29.15;43.37;101900.22;6126719;23;20006;-83
2022/07/13 07:15:53;;;;;;;14.70;7.70;;;;;;;28.64;43.34;101923.47;6126912;23;20010;-75
2022/07/13 07:18:21;;;;;;;16.25;7.25;;;;;;;28.09;44.77;101919.53;6099604;23;20093;-75
2022/07/13 07:20:48;;;;;;;12.48;7.35;;;;;;;27.51;45.80;101918.50;6126589;23;20036;-76
2022/07/13 07:23:14;;;;;;;13.15;7.00;;;;;;;27.01;47.45;101919.94;6126779;23;20016;-80
2022/07/13 07:25:39;;;;;;;15.77;7.57;;;;;;;26.81;48.65;101919.59;6126578;23;20006;-82
2022/07/13 07:28:05;;;;;;;13.75;7.53;;;;;;;27.29;47.47;101917.56;6126783;23;20424;-75
2022/07/13 07:30:31;;;;;;;14.80;7.22;;;;;;;27.78;46.54;101911.78;6126579;23;20030;-75
2022/07/13 07:32:56;;;;;;;15.43;7.38;;;;;;;27.94;46.67;101904.47;6126616;23;20002;-74
2022/07/13 07:35:21;;;;;;;17.13;7.50;;;;;;;27.79;47.69;101913.44;6126630;23;20413;-75
2022/07/13 07:37:47;;;;;;;14.45;6.95;;;;;;;27.68;47.23;101901.44;6126307;23;20022;-74
2022/07/13 07:40:12;;;;;;;13.57;7.90;;;;;;;27.66;46.80;101904.28;6126768;23;20013;-84
2022/07/13 07:42:38;;;;;;;17.98;6.97;;;;;;;27.76;46.21;101888.09;6126665;23;20420;-84
2022/07/13 07:45:04;;;;;;;13.75;6.68;;;;;;;28.05;47.28;101887.25;6126795;23;20134;-76
2022/07/13 07:47:29;;;;;;;13.68;6.43;;;;;;;28.33;46.66;101905.16;6100590;23;20125;-82
2022/07/13 07:49:55;;;;;;;16.08;7.00;;;;;;;28.18;45.48;101900.66;6126458;23;20038;-76
2022/07/13 07:52:21;;;;;;;12.05;7.10;;;;;;;28.14;46.92;101912.69;6126675;23;20076;-78
2022/07/13 07:54:47;;;;;;;14.30;7.28;;;;;;;27.93;46.13;101916.09;6126587;23;20037;-85
2022/07/13 07:57:13;;;;;;;14.80;7.57;;;;;;;27.76;47.52;101909.31;6125943;23;20045;-76
2022/07/13 07:59:39;;;;;;;14.15;6.82;;;;;;;27.78;47.61;101914.44;6126295;23;20400;-77
2022/07/13 08:02:05;;;;;;;13.32;6.40;;;;;;;27.81;46.94;101911.41;6126557;23;19998;-82
2022/07/13 08:04:30;;;;;;;13.38;7.00;;;;;;;27.83;47.64;101910.25;6126693;23;20009;-80
2022/07/13 08:06:56;;;;;;;14.05;6.78;;;;;;;27.90;46.64;101921.75;6125279;23;20010;-84
2022/07/13 08:09:21;;;;;;;13.02;7.07;;;;;;;28.03;46.85;101915.81;6127514;23;20002;-91
2022/07/13 08:11:46;;;;;;;10.82;6.70;;;;;;;28.02;48.18;101914.13;6126306;23;20010;-88
2022/07/13 08:14:12;;;;;;;13.10;6.70;;;;;;;28.05;47.35;101916.44;6126227;23;20021;-80
2022/07/13 08:16:37;;;;;;;13.80;6.82;;;;;;;27.92;47.76;101914.44;6126032;23;20438;-78
2022/07/13 08:19:03;;;;;;;14.45;7.40;;;;;;;27.79;48.81;101908.94;6126292;23;20471;-92
2022/07/13 08:21:28;;;;;;;13.50;7.78;;;;;;;27.65;48.25;101912.41;6126546;23;20368;-92
2022/07/13 08:23:56;;;;;;;16.52;7.85;;;;;;;27.47;47.44;101926.03;6126542;23;20038;-87
2022/07/13 08:26:23;;;;;;;13.25;6.95;;;;;;;27.62;47.54;101923.38;6125977;23;20002;-72
2022/07/13 08:28:51;;;;;;;10.95;6.75;;;;;;;27.98;48.30;101924.31;6126183;23;20369;-77
2022/07/13 08:31:16;;;;;;;12.52;7.55;;;;;;;28.26;45.79;101921.00;6126073;23;20006;-73
2022/07/13 08:39:13;;;;;;;14.50;6.38;;;;;;;28.18;46.40;101910.47;6125967;23;20016;-95
2022/07/13 08:41:39;;;;;;;15.70;7.05;;;;;;;28.13;45.32;101926.97;6126111;23;20002;-89
2022/07/13 08:44:05;;;;;;;15.40;7.10;;;;;;;28.05;47.22;101919.09;6126072;23;20006;-93
2022/07/13 08:46:31;;;;;;;13.95;7.03;;;;;;;27.90;46.15;101927.06;6100594;23;20026;-79
2022/07/13 08:48:57;;;;;;;10.38;5.97;;;;;;;27.79;46.63;101932.03;6126179;23;20057;-75
2022/07/13 08:51:24;;;;;;;10.88;5.43;;;;;;;27.67;47.44;101937.78;6126240;23;20006;-82
2022/07/13 08:53:57;;;;;;;11.48;5.95;;;;;;;27.57;47.72;101933.72;6126137;23;20064;-84
2022/07/13 08:56:22;;;;;;;13.10;6.57;;;;;;;27.61;46.89;101935.00;6126723;23;20002;-87
2022/07/13 08:58:48;;;;;;;12.55;5.97;;;;;;;27.54;47.88;101931.44;6125781;23;20017;-92
2022/07/13 09:01:14;;;;;;;12.07;5.80;;;;;;;27.38;46.72;101908.53;6099970;23;20002;-90
2022/07/13 09:03:40;;;;;;;10.77;6.43;;;;;;;27.35;47.21;101885.84;6099550;23;20028;-89
2022/07/13 09:06:06;;;;;;;11.25;5.50;;;;;;;27.95;46.99;101926.53;6125992;23;20428;-88
2022/07/13 09:08:41;;;;;;;14.30;6.35;;;;;;;28.31;46.71;101936.38;6125961;23;20029;-89
2022/07/13 09:11:06;;;;;;;10.88;6.65;;;;;;;28.35;46.28;101927.88;6126009;23;20002;-87
2022/07/13 09:13:38;;;;;;;13.85;6.88;;;;;;;28.45;45.58;101938.19;6099859;23;20016;-85
2022/07/13 09:16:13;;;;;;;14.90;6.47;;;;;;;28.67;47.01;101937.19;6125941;23;20013;-88
2022/07/13 09:18:38;;;;;;;13.73;6.78;;;;;;;28.80;46.23;101937.31;6126652;23;20331;-88
2022/07/13 09:21:04;;;;;;;16.77;6.93;;;;;;;29.02;45.58;101930.22;6125956;23;20002;-86
2022/07/13 09:23:29;;;;;;;13.38;7.47;;;;;;;29.20;44.53;101929.72;6126253;23;20002;-89
2022/07/13 09:25:55;;;;;;;11.32;6.70;;;;;;;29.26;44.03;101928.16;6126266;23;20033;-88
2022/07/13 09:28:21;;;;;;;11.73;6.18;;;;;;;29.42;43.71;101946.50;6125553;23;20002;-90
2022/07/13 09:30:46;;;;;;;14.65;6.78;;;;;;;29.49;43.95;101943.88;6132262;23;20006;-86
2022/07/13 09:33:12;;;;;;;12.65;6.72;;;;;;;29.52;43.87;101943.53;6138158;23;20040;-91
2022/07/13 09:35:51;;;;;;;13.35;6.10;;;;;;;29.51;43.93;101948.03;6136466;23;20001;-88
2022/07/13 09:38:34;;;;;;;14.40;6.35;;;;;;;29.46;43.66;101947.72;6130513;23;20317;-87
2022/07/13 09:41:17;;;;;;;12.85;7.28;;;;;;;29.33;42.61;101950.31;6128518;23;20014;-92
2022/07/13 09:47:05;;;;;;;12.13;6.10;;;;;;;28.96;42.27;101959.41;6146432;23;20096;-90
2022/07/13 09:49:41;;;;;;;11.77;5.50;;;;;;;28.91;43.65;101959.13;6110143;23;20009;-81
2022/07/13 09:52:08;;;;;;;13.85;6.05;;;;;;;28.67;43.30;101960.31;6136529;23;20006;-93
2022/07/13 09:54:36;;;;;;;14.88;5.97;;;;;;;28.46;43.48;101956.59;6138169;23;20045;-72
2022/07/13 09:57:04;;;;;;;10.05;5.97;;;;;;;28.23;44.08;101943.44;6138373;23;20006;-88
2022/07/13 09:59:30;;;;;;;12.07;5.50;;;;;;;28.31;45.34;101952.31;6135581;23;20030;-90
2022/07/13 10:01:56;;;;;;;12.63;6.18;;;;;;;28.33;44.32;101931.72;6131891;23;20005;-86
2022/07/13 10:04:23;;;;;;;10.05;5.68;;;;;;;28.61;43.27;101955.72;6131355;23;20036;-88
2022/07/13 10:06:50;;;;;;;11.77;5.88;;;;;;;28.89;43.04;101956.66;6143495;23;20014;-93
2022/07/13 10:09:49;;;;;;;13.98;6.38;;;;;;;29.20;42.08;101950.19;6133415;23;20020;-91
2022/07/13 10:12:09;;;;;;;14.00;6.88;;;;;;;29.24;42.69;101959.44;6125230;23;20092;-88
2022/07/13 10:14:35;;;;;;;14.93;6.90;;;;;;;29.08;43.83;101958.69;6135432;23;20002;-94
2022/07/13 10:17:04;;;;;;;11.65;6.18;;;;;;;29.17;43.33;101955.91;6128953;23;20321;-91
2022/07/13 10:19:31;;;;;;;11.65;5.97;;;;;;;28.93;42.77;101910.09;6126453;23;20017;-88
2022/07/13 10:22:07;;;;;;;11.07;6.50;;;;;;;29.28;42.29;101937.56;6100678;23;20013;-87
2022/07/13 10:24:34;;;;;;;10.00;5.88;;;;;;;29.24;42.19;101954.94;6127597;23;20030;-87
2022/07/13 10:27:21;;;;;;;14.05;5.95;;;;;;;29.27;43.09;101951.06;6128006;23;20061;-78
2022/07/13 10:29:51;;;;;;;10.35;5.63;;;;;;;29.19;43.46;101951.19;6127426;23;20036;-92
2022/07/13 10:32:20;;;;;;;9.00;4.60;;;;;;;29.14;41.45;101965.09;6126797;23;20009;-91
2022/07/13 10:34:58;;;;;;;12.32;4.78;;;;;;;29.22;42.11;101948.19;6127203;23;20010;-83
2022/07/13 10:37:25;;;;;;;12.52;4.63;;;;;;;29.17;41.12;101954.06;6126986;23;20040;-88
2022/07/13 10:40:33;;;;;;;12.50;4.68;;;;;;;29.84;41.76;101958.88;6127171;23;20018;-84
2022/07/13 10:43:02;;;;;;;10.93;4.85;;;;;;;29.89;41.72;101961.78;6009320;23;20458;-83
2022/07/13 10:45:39;;;;;;;9.23;4.82;;;;;;;29.96;41.07;101961.78;6009453;23;20015;-92
2022/07/13 10:48:11;;;;;;;11.15;4.80;;;;;;;30.07;39.59;101966.59;6009045;23;20020;-81
2022/07/13 10:50:47;;;;;;;8.32;4.63;;;;;;;30.13;40.75;101968.47;6009298;23;20019;-88
2022/07/13 10:53:13;;;;;;;12.25;4.82;;;;;;;29.89;39.92;101966.25;6009240;23;20102;-83
2022/07/13 10:55:49;;;;;;;8.82;4.55;;;;;;;29.92;40.39;101969.38;6008887;23;20019;-77
2022/07/13 10:58:30;;;;;;;9.45;4.40;;;;;;;29.91;39.84;101977.56;6009244;23;20052;-85
2022/07/13 11:00:55;;;;;;;10.73;4.22;;;;;;;29.78;38.20;101972.94;6012835;23;20435;-75
2022/07/13 11:03:35;;;;;;;9.95;4.60;;;;;;;29.81;39.29;101951.28;6013152;23;20019;-76
2022/07/13 11:06:08;;;;;;;10.85;4.13;;;;;;;30.07;37.52;101971.09;6016940;23;20931;-71
2022/07/13 11:08:34;;;;;;;8.93;4.05;;;;;;;30.12;38.18;101956.16;6012868;23;20018;-73
2022/07/13 11:11:29;;;;;;;8.02;4.38;;;;;;;30.31;38.23;101978.59;6029165;23;20011;-72
2022/07/13 11:13:55;;;;;;;10.23;3.95;;;;;;;30.24;37.60;101975.06;6038423;23;20445;-73
2022/07/13 11:16:46;;;;;;;7.28;3.60;;;;;;;30.47;38.53;101972.88;6038205;23;20461;-77
2022/07/13 11:19:11;;;;;;;;;;;;;;;30.59;37.23;101972.34;6039237;23;20011;-72
2022/07/13 11:22:07;;;;;;;9.00;4.32;;;;;;;30.30;38.16;101981.47;6042931;23;20002;-91